עמוד ראשי
METAR-TAF:

METAR-TAF

שדות תעופה :

Nakhon Si Thammarat, תאילנד

קו רוחב: 8-32-22N, קו אורך: 99-56-41E, גובה: 4מטר

תצפית מזג אוויר נוכחית

הדו"ח נערך לפני 1 שעות ו 5דקות, בשעה 11:00 UTC
רוח 4קשר מכיוון מערב/דרום-מערב, משתנה בין דרום/דרום-מערב ו מערב/צפון-מערב
טמפרטורת 31 צלסיוס
לחות 66%
לחץ 1003 hPa
ראות 10 קילומטר או יותר
מעט עננים בגובה 1800רגל

METAR: VTSF 251100Z 25004KT 200V290 9999 FEW018 31/24 Q1003 NOSIG

זמן: 19:05 (12:05 UTC)

תחזית

הדו"ח נערך לפני 1 שעות ו 5דקות, בשעה 11:00 UTC
תחזית בתוקף מ 25 ב 12 UTC עד 26 ב 12 UTC
רוח קשר מכיוון צפון
ראות 10 קילומטר או יותר
מעט עננים בגובה 2000רגל
יעשה מ
26 ב 04 UTC עד 26 ב 06 UTC
רוח 8קשר מכיוון מערב/דרום-מערב
הסתברות 40% :
זמנית מ -
26 ב 07 UTC עד 26 ב 10 UTC
רוח 15קשר עם כיוונים משתנים עם משבים עד 25קשר
מעט עננים בגובה 1600רגל , קומולונימבוס.
עננים פזורים בגובה 1800רגל
עננים בינוניים בגובה 10000רגל
סופת רעמים, גשם קל,

TAF: VTSF 251100Z 2512/2612 00000KT 9999 FEW020 BECMG 2604/2606 25008KT PROB40 TEMPO 2607/2610 VRB15G25KT -TSRA FEW016CB SCT018 BKN100

תצפיות ותחזיות מזג אוויר לגבי יותר מ- 4,000 שדות תעופה ברחבי העולם. דוחות METAR ו- TAF.

התחנות הזמינות מסומנות בנקודות צהובות ואדומות על גבי המפה.

העבר את העכבר לנקודה הצבעונית על מנת לראות את שם התחנה.

לאחר מכן, לחץ כדי לראות את תוכן ואת תחזיות מזג האוויר.

כדי לשנות את המפה: לחץ על הכפתורים הירוקים עם הפלוס השחור כדי להתקרב; על הכפתור הירוק עם המקף כדי להתרחק; או בחיצים הירוקים למפות סמוכות.


METAR-TAF: